sensor_id;sensor_type;location;lat;lon;timestamp;pressure;altitude;pressure_sealevel;temperature;humidity
53514;BME280;39768;54.148;12.174;2024-01-30T00:01:47;102661.84;;;4.16;43.60
53514;BME280;39768;54.148;12.174;2024-01-30T00:05:49;102668.91;;;4.14;43.95
53514;BME280;39768;54.148;12.174;2024-01-30T00:09:51;102667.16;;;4.14;44.58
53514;BME280;39768;54.148;12.174;2024-01-30T00:13:53;102660.41;;;3.50;45.30
53514;BME280;39768;54.148;12.174;2024-01-30T00:17:54;102655.44;;;2.95;46.47
53514;BME280;39768;54.148;12.174;2024-01-30T00:21:56;102651.16;;;3.10;45.54
53514;BME280;39768;54.148;12.174;2024-01-30T00:25:57;102640.03;;;2.70;47.98
53514;BME280;39768;54.148;12.174;2024-01-30T00:29:59;102642.81;;;2.78;47.85
53514;BME280;39768;54.148;12.174;2024-01-30T00:34:01;102638.22;;;2.03;49.53
53514;BME280;39768;54.148;12.174;2024-01-30T00:38:03;102630.63;;;1.70;50.00
53514;BME280;39768;54.148;12.174;2024-01-30T00:42:04;102624.19;;;1.52;51.43
53514;BME280;39768;54.148;12.174;2024-01-30T00:46:06;102620.66;;;1.55;52.10
53514;BME280;39768;54.148;12.174;2024-01-30T00:50:08;102623.91;;;2.55;49.61
53514;BME280;39768;54.148;12.174;2024-01-30T00:54:09;102644.69;;;2.88;47.54
53514;BME280;39768;54.148;12.174;2024-01-30T00:58:11;102639.81;;;2.52;47.22
53514;BME280;39768;54.148;12.174;2024-01-30T01:02:13;102630.31;;;2.06;48.81
53514;BME280;39768;54.148;12.174;2024-01-30T01:06:15;102632.13;;;2.08;49.26
53514;BME280;39768;54.148;12.174;2024-01-30T01:10:17;102641.63;;;2.54;47.56
53514;BME280;39768;54.148;12.174;2024-01-30T01:14:19;102628.75;;;2.21;48.27
53514;BME280;39768;54.148;12.174;2024-01-30T01:18:21;102633.47;;;2.44;48.49
53514;BME280;39768;54.148;12.174;2024-01-30T01:22:22;102629.22;;;2.58;47.94
53514;BME280;39768;54.148;12.174;2024-01-30T01:26:24;102628.97;;;3.09;47.45
53514;BME280;39768;54.148;12.174;2024-01-30T01:30:25;102636.19;;;3.22;46.83
53514;BME280;39768;54.148;12.174;2024-01-30T01:34:27;102635.03;;;2.94;48.07
53514;BME280;39768;54.148;12.174;2024-01-30T01:38:31;102629.44;;;2.75;49.37
53514;BME280;39768;54.148;12.174;2024-01-30T01:42:32;102631.66;;;3.12;48.22
53514;BME280;39768;54.148;12.174;2024-01-30T01:46:34;102634.97;;;2.87;47.93
53514;BME280;39768;54.148;12.174;2024-01-30T01:50:36;102630.38;;;2.77;48.15
53514;BME280;39768;54.148;12.174;2024-01-30T01:54:38;102617.88;;;2.70;49.88
53514;BME280;39768;54.148;12.174;2024-01-30T01:58:41;102620.19;;;1.80;50.31
53514;BME280;39768;54.148;12.174;2024-01-30T02:02:43;102632.47;;;2.34;49.49
53514;BME280;39768;54.148;12.174;2024-01-30T02:06:46;102624.19;;;2.10;51.35
53514;BME280;39768;54.148;12.174;2024-01-30T02:10:48;102616.69;;;1.83;52.99
53514;BME280;39768;54.148;12.174;2024-01-30T02:14:50;102623.72;;;2.41;51.16
53514;BME280;39768;54.148;12.174;2024-01-30T02:18:52;102620.53;;;2.03;50.41
53514;BME280;39768;54.148;12.174;2024-01-30T02:22:54;102616.91;;;1.97;50.98
53514;BME280;39768;54.148;12.174;2024-01-30T02:26:55;102630.28;;;2.69;49.71
53514;BME280;39768;54.148;12.174;2024-01-30T02:30:57;102636.03;;;3.06;48.46
53514;BME280;39768;54.148;12.174;2024-01-30T02:34:58;102632.59;;;3.16;47.25
53514;BME280;39768;54.148;12.174;2024-01-30T02:39:00;102644.22;;;3.25;48.13
53514;BME280;39768;54.148;12.174;2024-01-30T02:43:02;102643.38;;;3.32;46.84
53514;BME280;39768;54.148;12.174;2024-01-30T02:47:04;102640.69;;;3.26;46.90
53514;BME280;39768;54.148;12.174;2024-01-30T02:51:06;102646.97;;;3.34;46.41
53514;BME280;39768;54.148;12.174;2024-01-30T02:55:07;102652.09;;;3.13;48.10
53514;BME280;39768;54.148;12.174;2024-01-30T02:59:09;102657.19;;;3.86;47.04
53514;BME280;39768;54.148;12.174;2024-01-30T03:03:11;102652.31;;;3.38;46.23
53514;BME280;39768;54.148;12.174;2024-01-30T03:07:12;102648.75;;;3.35;47.81
53514;BME280;39768;54.148;12.174;2024-01-30T03:11:15;102660.72;;;3.86;47.29
53514;BME280;39768;54.148;12.174;2024-01-30T03:15:17;102658.25;;;4.14;46.09
53514;BME280;39768;54.148;12.174;2024-01-30T03:19:18;102662.84;;;4.37;45.59
53514;BME280;39768;54.148;12.174;2024-01-30T03:23:20;102655.88;;;4.62;45.89
53514;BME280;39768;54.148;12.174;2024-01-30T03:27:21;102657.13;;;3.80;46.81
53514;BME280;39768;54.148;12.174;2024-01-30T03:31:23;102650.19;;;4.06;48.61
53514;BME280;39768;54.148;12.174;2024-01-30T03:35:25;102639.09;;;3.45;47.87
53514;BME280;39768;54.148;12.174;2024-01-30T03:39:27;102631.53;;;3.00;50.33
53514;BME280;39768;54.148;12.174;2024-01-30T03:43:28;102634.97;;;3.91;47.84
53514;BME280;39768;54.148;12.174;2024-01-30T03:47:30;102635.66;;;3.60;48.60
53514;BME280;39768;54.148;12.174;2024-01-30T03:51:31;102637.19;;;3.33;48.63
53514;BME280;39768;54.148;12.174;2024-01-30T03:55:33;102627.31;;;3.22;50.22
53514;BME280;39768;54.148;12.174;2024-01-30T03:59:34;102627.41;;;3.32;49.19
53514;BME280;39768;54.148;12.174;2024-01-30T04:03:36;102633.19;;;3.86;47.78
53514;BME280;39768;54.148;12.174;2024-01-30T04:07:37;102624.44;;;4.05;47.89
53514;BME280;39768;54.148;12.174;2024-01-30T04:11:40;102621.91;;;4.25;47.55
53514;BME280;39768;54.148;12.174;2024-01-30T04:15:42;102617.94;;;3.68;48.18
53514;BME280;39768;54.148;12.174;2024-01-30T04:19:43;102610.78;;;3.58;49.70
53514;BME280;39768;54.148;12.174;2024-01-30T04:23:45;102605.19;;;3.29;51.00
53514;BME280;39768;54.148;12.174;2024-01-30T04:27:47;102601.03;;;2.74;53.66
53514;BME280;39768;54.148;12.174;2024-01-30T04:31:48;102584.66;;;2.37;54.94
53514;BME280;39768;54.148;12.174;2024-01-30T04:35:50;102595.81;;;2.80;51.96
53514;BME280;39768;54.148;12.174;2024-01-30T04:39:53;102596.25;;;2.44;54.67
53514;BME280;39768;54.148;12.174;2024-01-30T04:43:54;102587.63;;;1.93;58.12
53514;BME280;39768;54.148;12.174;2024-01-30T04:47:56;102579.41;;;1.77;57.58
53514;BME280;39768;54.148;12.174;2024-01-30T04:51:57;102597.03;;;2.35;55.84
53514;BME280;39768;54.148;12.174;2024-01-30T04:56:00;102588.97;;;3.02;51.79
53514;BME280;39768;54.148;12.174;2024-01-30T05:00:01;102587.75;;;2.04;56.65
53514;BME280;39768;54.148;12.174;2024-01-30T05:04:03;102583.53;;;2.91;54.35
53514;BME280;39768;54.148;12.174;2024-01-30T05:08:05;102598.31;;;2.66;51.77
53514;BME280;39768;54.148;12.174;2024-01-30T05:12:07;102585.78;;;1.89;55.46
53514;BME280;39768;54.148;12.174;2024-01-30T05:16:09;102579.91;;;2.84;54.45
53514;BME280;39768;54.148;12.174;2024-01-30T05:20:11;102576.81;;;2.49;54.22
53514;BME280;39768;54.148;12.174;2024-01-30T05:24:13;102584.28;;;3.82;51.35
53514;BME280;39768;54.148;12.174;2024-01-30T05:28:14;102571.94;;;2.84;52.91
53514;BME280;39768;54.148;12.174;2024-01-30T05:32:16;102579.91;;;3.90;49.63
53514;BME280;39768;54.148;12.174;2024-01-30T05:36:18;102564.63;;;3.65;52.00
53514;BME280;39768;54.148;12.174;2024-01-30T05:40:19;102571.09;;;4.03;49.91
53514;BME280;39768;54.148;12.174;2024-01-30T05:44:21;102559.56;;;4.09;49.69
53514;BME280;39768;54.148;12.174;2024-01-30T05:48:23;102558.66;;;4.10;48.96
53514;BME280;39768;54.148;12.174;2024-01-30T05:52:24;102568.41;;;4.00;48.74
53514;BME280;39768;54.148;12.174;2024-01-30T05:56:26;102580.41;;;5.45;46.40
53514;BME280;39768;54.148;12.174;2024-01-30T06:00:28;102577.59;;;4.69;46.62
53514;BME280;39768;54.148;12.174;2024-01-30T06:04:30;102573.94;;;4.32;46.68
53514;BME280;39768;54.148;12.174;2024-01-30T06:08:31;102568.53;;;4.19;48.42
53514;BME280;39768;54.148;12.174;2024-01-30T06:12:34;102565.59;;;3.75;49.97
53514;BME280;39768;54.148;12.174;2024-01-30T06:16:36;102559.47;;;3.92;49.27
53514;BME280;39768;54.148;12.174;2024-01-30T06:20:38;102552.31;;;3.85;48.49
53514;BME280;39768;54.148;12.174;2024-01-30T06:24:39;102543.63;;;2.94;51.87
53514;BME280;39768;54.148;12.174;2024-01-30T06:28:41;102542.19;;;3.31;49.74
53514;BME280;39768;54.148;12.174;2024-01-30T06:32:42;102537.16;;;2.71;52.23
53514;BME280;39768;54.148;12.174;2024-01-30T06:36:44;102542.00;;;3.10;51.96
53514;BME280;39768;54.148;12.174;2024-01-30T06:40:45;102535.97;;;3.33;50.93
53514;BME280;39768;54.148;12.174;2024-01-30T06:44:47;102537.78;;;3.38;50.26
53514;BME280;39768;54.148;12.174;2024-01-30T06:48:48;102534.25;;;3.39;50.48
53514;BME280;39768;54.148;12.174;2024-01-30T06:52:50;102543.38;;;3.73;48.08
53514;BME280;39768;54.148;12.174;2024-01-30T06:56:52;102533.16;;;3.12;50.18
53514;BME280;39768;54.148;12.174;2024-01-30T07:00:54;102536.19;;;3.62;48.60
53514;BME280;39768;54.148;12.174;2024-01-30T07:04:56;102538.84;;;2.62;49.73
53514;BME280;39768;54.148;12.174;2024-01-30T07:08:58;102538.25;;;2.89;47.85
53514;BME280;39768;54.148;12.174;2024-01-30T07:13:00;102532.94;;;2.86;47.85
53514;BME280;39768;54.148;12.174;2024-01-30T07:17:02;102530.19;;;2.79;49.40
53514;BME280;39768;54.148;12.174;2024-01-30T07:21:04;102523.09;;;2.81;49.14
53514;BME280;39768;54.148;12.174;2024-01-30T07:25:06;102527.09;;;3.31;49.76
53514;BME280;39768;54.148;12.174;2024-01-30T07:29:08;102526.22;;;3.34;49.10
53514;BME280;39768;54.148;12.174;2024-01-30T07:33:09;102532.72;;;3.77;48.02
53514;BME280;39768;54.148;12.174;2024-01-30T07:37:11;102524.19;;;4.45;46.81
53514;BME280;39768;54.148;12.174;2024-01-30T07:41:16;102522.84;;;2.56;50.10
53514;BME280;39768;54.148;12.174;2024-01-30T07:45:18;102529.63;;;3.13;50.84
53514;BME280;39768;54.148;12.174;2024-01-30T07:49:23;102527.06;;;2.38;51.62
53514;BME280;39768;54.148;12.174;2024-01-30T07:53:25;102508.72;;;1.89;55.75
53514;BME280;39768;54.148;12.174;2024-01-30T07:57:27;102502.59;;;1.93;58.06
53514;BME280;39768;54.148;12.174;2024-01-30T08:01:29;102497.13;;;1.84;58.38
53514;BME280;39768;54.148;12.174;2024-01-30T08:05:30;102501.13;;;2.20;54.69
53514;BME280;39768;54.148;12.174;2024-01-30T08:09:32;102498.56;;;3.18;53.72
53514;BME280;39768;54.148;12.174;2024-01-30T08:13:34;102500.19;;;2.96;55.33
53514;BME280;39768;54.148;12.174;2024-01-30T08:17:35;102505.00;;;3.45;53.35
53514;BME280;39768;54.148;12.174;2024-01-30T08:21:37;102505.78;;;2.38;56.74
53514;BME280;39768;54.148;12.174;2024-01-30T08:25:40;102508.66;;;2.59;56.74
53514;BME280;39768;54.148;12.174;2024-01-30T08:29:41;102512.16;;;3.53;53.97
53514;BME280;39768;54.148;12.174;2024-01-30T08:33:43;102516.13;;;4.28;51.32
53514;BME280;39768;54.148;12.174;2024-01-30T08:37:47;102526.53;;;3.81;50.29
53514;BME280;39768;54.148;12.174;2024-01-30T08:41:49;102535.63;;;4.15;50.33
53514;BME280;39768;54.148;12.174;2024-01-30T08:45:50;102524.75;;;2.71;56.98
53514;BME280;39768;54.148;12.174;2024-01-30T08:49:52;102517.47;;;3.52;53.17
53514;BME280;39768;54.148;12.174;2024-01-30T08:53:54;102512.47;;;2.82;56.21
53514;BME280;39768;54.148;12.174;2024-01-30T08:57:56;102513.31;;;2.78;57.90
53514;BME280;39768;54.148;12.174;2024-01-30T09:01:57;102519.78;;;4.82;53.33
53514;BME280;39768;54.148;12.174;2024-01-30T09:06:12;102510.31;;;3.42;54.30
53514;BME280;39768;54.148;12.174;2024-01-30T09:10:14;102510.03;;;4.80;51.60
53514;BME280;39768;54.148;12.174;2024-01-30T09:14:19;102522.50;;;5.51;48.95
53514;BME280;39768;54.148;12.174;2024-01-30T09:18:21;102510.03;;;5.37;49.94
53514;BME280;39768;54.148;12.174;2024-01-30T09:22:24;102502.00;;;4.78;50.34
53514;BME280;39768;54.148;12.174;2024-01-30T09:26:26;102492.06;;;4.21;53.01
53514;BME280;39768;54.148;12.174;2024-01-30T09:30:27;102494.00;;;5.13;51.41
53514;BME280;39768;54.148;12.174;2024-01-30T09:34:29;102485.97;;;4.64;50.91
53514;BME280;39768;54.148;12.174;2024-01-30T09:38:31;102486.88;;;5.04;52.00
53514;BME280;39768;54.148;12.174;2024-01-30T09:42:36;102491.31;;;4.99;50.88
53514;BME280;39768;54.148;12.174;2024-01-30T09:46:38;102492.91;;;6.04;47.66
53514;BME280;39768;54.148;12.174;2024-01-30T09:50:40;102487.75;;;5.14;50.91
53514;BME280;39768;54.148;12.174;2024-01-30T09:54:43;102482.38;;;4.56;52.85
53514;BME280;39768;54.148;12.174;2024-01-30T09:58:46;102477.66;;;3.76;56.28
53514;BME280;39768;54.148;12.174;2024-01-30T10:02:47;102475.13;;;4.11;54.03
53514;BME280;39768;54.148;12.174;2024-01-30T10:06:50;102475.22;;;4.38;54.00
53514;BME280;39768;54.148;12.174;2024-01-30T10:10:52;102469.91;;;4.41;53.71
53514;BME280;39768;54.148;12.174;2024-01-30T10:14:56;102462.84;;;4.82;52.91
53514;BME280;39768;54.148;12.174;2024-01-30T10:18:58;102459.31;;;4.92;53.76
53514;BME280;39768;54.148;12.174;2024-01-30T10:22:59;102457.50;;;5.15;52.05
53514;BME280;39768;54.148;12.174;2024-01-30T10:27:01;102467.19;;;5.71;49.55
53514;BME280;39768;54.148;12.174;2024-01-30T10:31:03;102455.47;;;6.01;49.76
53514;BME280;39768;54.148;12.174;2024-01-30T10:35:08;102440.63;;;4.93;54.04
53514;BME280;39768;54.148;12.174;2024-01-30T10:39:11;102440.56;;;5.40;50.88
53514;BME280;39768;54.148;12.174;2024-01-30T10:43:15;102433.47;;;5.06;53.80
53514;BME280;39768;54.148;12.174;2024-01-30T10:47:20;102425.41;;;5.35;53.43
53514;BME280;39768;54.148;12.174;2024-01-30T10:51:24;102422.75;;;5.26;51.36
53514;BME280;39768;54.148;12.174;2024-01-30T10:55:28;102411.22;;;4.43;54.52
53514;BME280;39768;54.148;12.174;2024-01-30T10:59:30;102405.84;;;5.10;52.62
53514;BME280;39768;54.148;12.174;2024-01-30T11:03:34;102396.97;;;4.81;56.83
53514;BME280;39768;54.148;12.174;2024-01-30T11:07:39;102392.47;;;5.25;55.59
53514;BME280;39768;54.148;12.174;2024-01-30T11:11:56;102414.56;;;7.10;48.32
53514;BME280;39768;54.148;12.174;2024-01-30T11:16:03;102406.91;;;6.71;49.21
53514;BME280;39768;54.148;12.174;2024-01-30T11:20:09;102417.63;;;6.71;49.77
53514;BME280;39768;54.148;12.174;2024-01-30T11:24:14;102410.09;;;5.90;50.89
53514;BME280;39768;54.148;12.174;2024-01-30T11:28:16;102404.25;;;6.69;50.44
53514;BME280;39768;54.148;12.174;2024-01-30T11:32:23;102386.25;;;5.11;55.35
53514;BME280;39768;54.148;12.174;2024-01-30T11:36:28;102386.78;;;6.13;49.88
53514;BME280;39768;54.148;12.174;2024-01-30T11:40:32;102374.25;;;6.17;53.22
53514;BME280;39768;54.148;12.174;2024-01-30T11:44:35;102365.75;;;5.31;51.95
53514;BME280;39768;54.148;12.174;2024-01-30T11:48:36;102355.94;;;5.26;54.53
53514;BME280;39768;54.148;12.174;2024-01-30T11:52:39;102350.34;;;5.93;52.72
53514;BME280;39768;54.148;12.174;2024-01-30T11:56:42;102345.81;;;6.05;53.57
53514;BME280;39768;54.148;12.174;2024-01-30T12:00:52;102359.59;;;6.73;51.41
53514;BME280;39768;54.148;12.174;2024-01-30T12:04:54;102350.28;;;5.99;52.64
53514;BME280;39768;54.148;12.174;2024-01-30T12:08:57;102356.84;;;7.58;49.03
53514;BME280;39768;54.148;12.174;2024-01-30T12:13:01;102341.53;;;5.69;53.62
53514;BME280;39768;54.148;12.174;2024-01-30T12:17:03;102338.75;;;5.92;53.04
53514;BME280;39768;54.148;12.174;2024-01-30T12:21:04;102337.25;;;5.36;56.21
53514;BME280;39768;54.148;12.174;2024-01-30T12:25:14;102341.88;;;6.53;52.83
53514;BME280;39768;54.148;12.174;2024-01-30T12:29:16;102337.69;;;6.19;53.64
53514;BME280;39768;54.148;12.174;2024-01-30T12:33:18;102328.38;;;5.22;57.71
53514;BME280;39768;54.148;12.174;2024-01-30T12:37:20;102322.44;;;7.22;50.63
53514;BME280;39768;54.148;12.174;2024-01-30T12:41:25;102323.88;;;7.50;51.01
53514;BME280;39768;54.148;12.174;2024-01-30T12:45:30;102321.34;;;7.38;52.90
53514;BME280;39768;54.148;12.174;2024-01-30T12:49:31;102321.47;;;7.29;49.98
53514;BME280;39768;54.148;12.174;2024-01-30T12:53:33;102320.47;;;6.53;52.70
53514;BME280;39768;54.148;12.174;2024-01-30T12:57:35;102312.13;;;7.61;50.42
53514;BME280;39768;54.148;12.174;2024-01-30T13:01:36;102313.53;;;7.89;49.46
53514;BME280;39768;54.148;12.174;2024-01-30T13:05:38;102305.25;;;8.58;47.57
53514;BME280;39768;54.148;12.174;2024-01-30T13:09:40;102294.22;;;7.64;49.26
53514;BME280;39768;54.148;12.174;2024-01-30T13:13:42;102295.00;;;7.72;49.09
53514;BME280;39768;54.148;12.174;2024-01-30T13:17:44;102290.72;;;6.85;51.25
53514;BME280;39768;54.148;12.174;2024-01-30T13:21:48;102287.69;;;7.17;51.74
53514;BME280;39768;54.148;12.174;2024-01-30T13:25:50;102288.50;;;7.21;51.34
53514;BME280;39768;54.148;12.174;2024-01-30T13:29:51;102279.31;;;6.67;54.83
53514;BME280;39768;54.148;12.174;2024-01-30T13:33:54;102291.59;;;7.60;51.20
53514;BME280;39768;54.148;12.174;2024-01-30T13:37:56;102287.16;;;6.85;51.34
53514;BME280;39768;54.148;12.174;2024-01-30T13:41:57;102279.69;;;7.11;54.69
53514;BME280;39768;54.148;12.174;2024-01-30T13:45:59;102284.41;;;7.63;50.40
53514;BME280;39768;54.148;12.174;2024-01-30T13:50:01;102270.25;;;6.78;55.35
53514;BME280;39768;54.148;12.174;2024-01-30T13:54:04;102271.31;;;7.37;53.04
53514;BME280;39768;54.148;12.174;2024-01-30T13:58:06;102270.44;;;6.59;53.49
53514;BME280;39768;54.148;12.174;2024-01-30T14:02:08;102274.06;;;7.97;50.51
53514;BME280;39768;54.148;12.174;2024-01-30T14:06:12;102279.91;;;7.64;52.16
53514;BME280;39768;54.148;12.174;2024-01-30T14:10:14;102288.22;;;7.45;51.82
53514;BME280;39768;54.148;12.174;2024-01-30T14:14:16;102295.56;;;7.94;50.13
53514;BME280;39768;54.148;12.174;2024-01-30T14:18:18;102280.63;;;7.09;53.21
53514;BME280;39768;54.148;12.174;2024-01-30T14:22:19;102276.19;;;7.05;53.32
53514;BME280;39768;54.148;12.174;2024-01-30T14:26:21;102273.03;;;6.71;55.47
53514;BME280;39768;54.148;12.174;2024-01-30T14:30:22;102275.72;;;6.71;54.76
53514;BME280;39768;54.148;12.174;2024-01-30T14:34:24;102272.00;;;7.53;51.91
53514;BME280;39768;54.148;12.174;2024-01-30T14:38:26;102282.16;;;7.30;49.67
53514;BME280;39768;54.148;12.174;2024-01-30T14:42:29;102289.94;;;7.48;49.59
53514;BME280;39768;54.148;12.174;2024-01-30T14:46:33;102285.34;;;7.57;50.31
53514;BME280;39768;54.148;12.174;2024-01-30T14:50:35;102286.25;;;6.88;53.15
53514;BME280;39768;54.148;12.174;2024-01-30T16:17:22;102285.66;;;7.33;53.22
53514;BME280;39768;54.148;12.174;2024-01-30T16:21:24;102281.16;;;7.37;54.27
53514;BME280;39768;54.148;12.174;2024-01-30T16:30:03;102277.78;;;7.21;55.04
53514;BME280;39768;54.148;12.174;2024-01-30T16:38:36;102282.38;;;7.13;54.79
53514;BME280;39768;54.148;12.174;2024-01-30T16:42:38;102293.84;;;7.22;54.88
53514;BME280;39768;54.148;12.174;2024-01-30T16:46:39;102297.25;;;8.01;52.78
53514;BME280;39768;54.148;12.174;2024-01-30T16:50:41;102299.06;;;8.51;49.25
53514;BME280;39768;54.148;12.174;2024-01-30T16:54:43;102314.66;;;8.31;49.45
53514;BME280;39768;54.148;12.174;2024-01-30T16:58:45;102302.59;;;8.04;51.01
53514;BME280;39768;54.148;12.174;2024-01-30T17:02:46;102305.78;;;5.95;57.89
53514;BME280;39768;54.148;12.174;2024-01-30T17:06:48;102307.84;;;6.71;57.63
53514;BME280;39768;54.148;12.174;2024-01-30T17:10:50;102310.94;;;7.14;56.67
53514;BME280;39768;54.148;12.174;2024-01-30T17:14:52;102310.41;;;6.80;56.50
53514;BME280;39768;54.148;12.174;2024-01-30T17:18:54;102303.66;;;6.36;60.32
53514;BME280;39768;54.148;12.174;2024-01-30T17:22:56;102307.03;;;6.61;58.61
53514;BME280;39768;54.148;12.174;2024-01-30T17:26:57;102306.31;;;7.27;55.41
53514;BME280;39768;54.148;12.174;2024-01-30T17:30:59;102307.72;;;7.55;54.71
53514;BME280;39768;54.148;12.174;2024-01-30T17:35:00;102314.31;;;7.31;53.69
53514;BME280;39768;54.148;12.174;2024-01-30T17:39:03;102323.59;;;7.75;54.16
53514;BME280;39768;54.148;12.174;2024-01-30T17:43:06;102333.22;;;8.45;51.60
53514;BME280;39768;54.148;12.174;2024-01-30T17:47:08;102336.56;;;8.05;51.93
53514;BME280;39768;54.148;12.174;2024-01-30T17:51:10;102335.50;;;8.14;53.06
53514;BME280;39768;54.148;12.174;2024-01-30T17:55:12;102328.50;;;7.36;54.26
53514;BME280;39768;54.148;12.174;2024-01-30T17:59:13;102318.94;;;7.86;54.07
53514;BME280;39768;54.148;12.174;2024-01-30T18:03:15;102330.53;;;7.88;54.69
53514;BME280;39768;54.148;12.174;2024-01-30T18:07:16;102324.53;;;8.29;52.26
53514;BME280;39768;54.148;12.174;2024-01-30T18:11:18;102323.44;;;7.85;53.47
53514;BME280;39768;54.148;12.174;2024-01-30T18:15:20;102320.75;;;8.41;51.88
53514;BME280;39768;54.148;12.174;2024-01-30T18:19:22;102316.81;;;8.61;51.28
53514;BME280;39768;54.148;12.174;2024-01-30T18:23:24;102315.94;;;8.61;52.27
53514;BME280;39768;54.148;12.174;2024-01-30T18:27:25;102312.16;;;7.59;55.11
53514;BME280;39768;54.148;12.174;2024-01-30T18:31:27;102304.97;;;7.63;57.00
53514;BME280;39768;54.148;12.174;2024-01-30T18:35:29;102307.59;;;7.67;55.77
53514;BME280;39768;54.148;12.174;2024-01-30T18:39:31;102314.53;;;7.82;55.46
53514;BME280;39768;54.148;12.174;2024-01-30T18:43:33;102328.41;;;8.11;54.75
53514;BME280;39768;54.148;12.174;2024-01-30T18:47:36;102328.22;;;8.22;53.98
53514;BME280;39768;54.148;12.174;2024-01-30T18:51:38;102317.84;;;7.99;54.80
53514;BME280;39768;54.148;12.174;2024-01-30T18:55:40;102313.13;;;7.52;57.09
53514;BME280;39768;54.148;12.174;2024-01-30T18:59:42;102311.53;;;7.37;57.38
53514;BME280;39768;54.148;12.174;2024-01-30T19:03:44;102316.63;;;7.58;56.12
53514;BME280;39768;54.148;12.174;2024-01-30T19:07:46;102309.34;;;7.70;57.05
53514;BME280;39768;54.148;12.174;2024-01-30T19:11:50;102314.56;;;7.79;55.91
53514;BME280;39768;54.148;12.174;2024-01-30T19:15:52;102324.38;;;7.80;56.87
53514;BME280;39768;54.148;12.174;2024-01-30T19:19:54;102306.13;;;7.40;57.74
53514;BME280;39768;54.148;12.174;2024-01-30T19:23:56;102301.97;;;7.85;56.56
53514;BME280;39768;54.148;12.174;2024-01-30T19:28:01;102299.03;;;7.36;58.63
53514;BME280;39768;54.148;12.174;2024-01-30T19:32:03;102296.69;;;7.09;58.96
53514;BME280;39768;54.148;12.174;2024-01-30T19:36:05;102306.81;;;7.57;57.83
53514;BME280;39768;54.148;12.174;2024-01-30T19:40:07;102303.50;;;7.37;58.91
53514;BME280;39768;54.148;12.174;2024-01-30T19:44:09;102304.88;;;7.69;56.83
53514;BME280;39768;54.148;12.174;2024-01-30T19:48:10;102311.13;;;8.29;56.48
53514;BME280;39768;54.148;12.174;2024-01-30T19:52:13;102309.56;;;8.14;57.24
53514;BME280;39768;54.148;12.174;2024-01-30T19:56:19;102314.44;;;7.88;58.90
53514;BME280;39768;54.148;12.174;2024-01-30T20:00:21;102313.41;;;7.98;58.29
53514;BME280;39768;54.148;12.174;2024-01-30T20:04:23;102325.16;;;7.89;55.94
53514;BME280;39768;54.148;12.174;2024-01-30T20:08:27;102330.25;;;8.61;53.73
53514;BME280;39768;54.148;12.174;2024-01-30T20:12:30;102329.38;;;8.61;54.94
53514;BME280;39768;54.148;12.174;2024-01-30T20:16:40;102320.78;;;7.82;57.76
53514;BME280;39768;54.148;12.174;2024-01-30T20:20:44;102334.59;;;8.16;55.79
53514;BME280;39768;54.148;12.174;2024-01-30T20:24:46;102328.09;;;8.83;54.44
53514;BME280;39768;54.148;12.174;2024-01-30T20:28:54;102321.88;;;7.68;58.10
53514;BME280;39768;54.148;12.174;2024-01-30T20:32:57;102325.88;;;8.54;56.24
53514;BME280;39768;54.148;12.174;2024-01-30T20:37:00;102334.97;;;8.47;55.96
53514;BME280;39768;54.148;12.174;2024-01-30T20:41:02;102326.91;;;8.47;52.71
53514;BME280;39768;54.148;12.174;2024-01-30T20:45:07;102329.31;;;9.12;52.90
53514;BME280;39768;54.148;12.174;2024-01-30T20:49:09;102342.00;;;9.07;53.39
53514;BME280;39768;54.148;12.174;2024-01-30T20:53:16;102334.19;;;8.93;55.38
53514;BME280;39768;54.148;12.174;2024-01-30T20:57:18;102333.13;;;8.51;55.66
53514;BME280;39768;54.148;12.174;2024-01-30T21:01:19;102337.75;;;8.95;54.26
53514;BME280;39768;54.148;12.174;2024-01-30T21:05:21;102346.38;;;8.60;54.46
53514;BME280;39768;54.148;12.174;2024-01-30T21:09:24;102341.78;;;9.16;53.80
53514;BME280;39768;54.148;12.174;2024-01-30T21:13:26;102342.94;;;9.04;53.09
53514;BME280;39768;54.148;12.174;2024-01-30T21:17:28;102326.44;;;8.76;54.89
53514;BME280;39768;54.148;12.174;2024-01-30T21:21:29;102328.38;;;9.14;52.25
53514;BME280;39768;54.148;12.174;2024-01-30T21:25:32;102319.50;;;8.63;54.32
53514;BME280;39768;54.148;12.174;2024-01-30T21:29:33;102328.34;;;9.16;53.08
53514;BME280;39768;54.148;12.174;2024-01-30T21:33:37;102332.69;;;8.77;54.41
53514;BME280;39768;54.148;12.174;2024-01-30T21:37:39;102330.19;;;8.66;54.09
53514;BME280;39768;54.148;12.174;2024-01-30T21:41:41;102337.75;;;8.93;53.15
53514;BME280;39768;54.148;12.174;2024-01-30T21:45:43;102337.34;;;9.15;52.87
53514;BME280;39768;54.148;12.174;2024-01-30T21:49:44;102325.63;;;9.17;51.36
53514;BME280;39768;54.148;12.174;2024-01-30T21:53:46;102326.34;;;9.25;50.74
53514;BME280;39768;54.148;12.174;2024-01-30T21:57:48;102334.53;;;9.65;49.59
53514;BME280;39768;54.148;12.174;2024-01-30T22:01:49;102325.81;;;9.93;49.01
53514;BME280;39768;54.148;12.174;2024-01-30T22:05:51;102326.44;;;9.67;48.74
53514;BME280;39768;54.148;12.174;2024-01-30T22:09:53;102325.69;;;10.36;47.20
53514;BME280;39768;54.148;12.174;2024-01-30T22:13:55;102333.28;;;10.56;45.89
53514;BME280;39768;54.148;12.174;2024-01-30T22:17:57;102328.25;;;10.03;47.09
53514;BME280;39768;54.148;12.174;2024-01-30T22:21:58;102332.31;;;9.84;49.36
53514;BME280;39768;54.148;12.174;2024-01-30T22:26:00;102321.56;;;8.96;52.79
53514;BME280;39768;54.148;12.174;2024-01-30T22:30:01;102328.53;;;8.57;53.00
53514;BME280;39768;54.148;12.174;2024-01-30T22:34:03;102325.31;;;8.88;53.60
53514;BME280;39768;54.148;12.174;2024-01-30T22:38:05;102320.50;;;9.07;52.31